Time;durP1;ratioP1;P1;durP2;ratioP2;P2;SDS_P1;SDS_P2;PMS_P1;PMS_P2;Temp;Humidity;BMP_temperature;BMP_pressure;BME280_temperature;BME280_humidity;BME280_pressure;Samples;Min_cycle;Max_cycle;Signal;HPM_P1;HPM_P2
2020/12/12 00:01:12;;;;;;;9.13;8.03;;;6.10;99.90;;;;;;5034677;28;20446;-88
2020/12/12 00:03:38;;;;;;;9.20;7.83;;;6.10;99.90;;;;;;5033849;28;20531;-88
2020/12/12 00:06:09;;;;;;;10.30;9.20;;;6.10;99.90;;;;;;5034623;28;20433;-88
2020/12/12 00:08:37;;;;;;;10.03;7.60;;;6.20;99.90;;;;;;5033991;28;20596;-86
2020/12/12 00:11:03;;;;;;;10.73;8.63;;;6.20;99.90;;;;;;5034700;28;20531;-87
2020/12/12 00:13:30;;;;;;;8.77;7.63;;;6.20;99.90;;;;;;5034364;28;20551;-87
2020/12/12 00:16:06;;;;;;;8.40;7.60;;;6.10;99.90;;;;;;5034596;28;20454;-87
2020/12/12 00:18:32;;;;;;;8.60;7.30;;;6.20;99.90;;;;;;5034915;28;20444;-88
2020/12/12 00:20:58;;;;;;;9.63;8.60;;;6.20;99.90;;;;;;5035208;28;20469;-88
2020/12/12 00:23:32;;;;;;;10.00;8.43;;;6.20;99.90;;;;;;5034743;28;20450;-87
2020/12/12 00:25:59;;;;;;;8.83;7.20;;;6.20;99.90;;;;;;5034983;28;20444;-88
2020/12/12 00:28:25;;;;;;;10.17;7.77;;;6.30;99.90;;;;;;5036593;28;20799;-87
2020/12/12 00:31:31;;;;;;;11.37;8.90;;;6.30;99.90;;;;;;5035574;28;20935;-88
2020/12/12 00:33:58;;;;;;;9.93;7.87;;;6.30;99.90;;;;;;5033983;28;20530;-85
2020/12/12 00:36:24;;;;;;;10.23;8.13;;;6.30;99.90;;;;;;5034422;28;20450;-89
2020/12/12 00:38:51;;;;;;;10.40;8.43;;;6.30;99.90;;;;;;5034475;28;20871;-88
2020/12/12 00:41:17;;;;;;;10.17;8.30;;;6.30;99.90;;;;;;5034519;28;20518;-88
2020/12/12 00:43:43;;;;;;;8.97;7.30;;;6.30;99.90;;;;;;5035457;28;20974;-90
2020/12/12 00:46:10;;;;;;;9.83;8.43;;;6.40;99.90;;;;;;5036921;28;20547;-89
2020/12/12 00:48:36;;;;;;;10.60;8.53;;;6.30;99.90;;;;;;5016961;28;20500;-90
2020/12/12 00:51:04;;;;;;;10.53;9.10;;;6.30;99.90;;;;;;5035411;28;20459;-90
2020/12/12 00:53:30;;;;;;;10.13;8.10;;;6.40;99.90;;;;;;5033674;28;20984;-90
2020/12/12 00:55:59;;;;;;;9.87;8.03;;;6.40;99.90;;;;;;5034154;28;20448;-89
2020/12/12 00:58:28;;;;;;;8.60;7.70;;;6.40;99.90;;;;;;5036788;28;20452;-89
2020/12/12 01:00:54;;;;;;;9.67;8.43;;;6.40;99.90;;;;;;5037091;28;20488;-89
2020/12/12 01:03:20;;;;;;;9.70;7.73;;;6.50;99.90;;;;;;5036488;28;20453;-88
2020/12/12 01:05:47;;;;;;;10.33;8.80;;;6.50;99.90;;;;;;5037462;28;20445;-89
2020/12/12 01:08:20;;;;;;;12.87;9.20;;;6.50;99.90;;;;;;5036845;28;20494;-89
2020/12/12 01:10:46;;;;;;;10.30;8.00;;;6.50;99.90;;;;;;5037630;28;20944;-89
2020/12/12 01:13:13;;;;;;;9.70;7.83;;;6.50;99.90;;;;;;5036931;28;20930;-90
2020/12/12 01:15:39;;;;;;;8.80;7.37;;;6.50;99.90;;;;;;5037262;28;20868;-89
2020/12/12 01:18:13;;;;;;;10.40;8.37;;;6.50;99.90;;;;;;5036953;28;20464;-88
2020/12/12 01:20:40;;;;;;;9.50;8.07;;;6.50;99.90;;;;;;5036361;28;20447;-89
2020/12/12 01:23:07;;;;;;;10.13;8.17;;;6.60;99.90;;;;;;5036969;28;20525;-90
2020/12/12 01:25:43;;;;;;;10.23;9.13;;;6.50;99.90;;;;;;5036276;28;20456;-89
2020/12/12 01:28:09;;;;;;;11.20;9.13;;;6.50;99.90;;;;;;5036212;28;20483;-89
2020/12/12 01:30:36;;;;;;;9.73;8.20;;;6.50;99.90;;;;;;5034767;28;20945;-89
2020/12/12 01:33:21;;;;;;;10.33;8.10;;;6.50;99.90;;;;;;5036921;28;20443;-90
2020/12/12 01:35:47;;;;;;;9.63;8.50;;;6.60;99.90;;;;;;5037739;28;20534;-89
2020/12/12 01:45:13;;;;;;;9.93;8.73;;;6.60;99.90;;;;;;5037182;28;20491;-88
2020/12/12 01:47:40;;;;;;;10.37;8.33;;;6.60;99.90;;;;;;5036315;28;20445;-86
2020/12/12 01:50:07;;;;;;;9.73;8.17;;;6.60;99.90;;;;;;5036758;28;20456;-86
2020/12/12 01:52:34;;;;;;;12.40;9.43;;;6.60;99.90;;;;;;5035975;28;20444;-86
2020/12/12 01:55:01;;;;;;;10.60;8.50;;;6.60;99.90;;;;;;5036559;28;20455;-86
2020/12/12 01:57:27;;;;;;;12.47;11.10;;;6.50;99.90;;;;;;5035773;28;20452;-86
2020/12/12 01:59:54;;;;;;;12.53;9.30;;;6.40;99.90;;;;;;5036650;28;20456;-86
2020/12/12 02:02:22;;;;;;;12.40;8.83;;;6.40;99.90;;;;;;5035633;28;20450;-87
2020/12/12 02:04:52;;;;;;;9.70;8.30;;;6.40;99.90;;;;;;5036314;28;20445;-87
2020/12/12 02:07:20;;;;;;;12.77;9.60;;;6.40;99.90;;;;;;5036486;28;20440;-91
2020/12/12 02:09:48;;;;;;;9.60;8.60;;;6.40;99.90;;;;;;5035739;28;20592;-87
2020/12/12 02:12:16;;;;;;;12.37;10.00;;;6.30;99.90;;;;;;5044126;28;20493;-87
2020/12/12 02:14:43;;;;;;;13.07;9.90;;;6.40;99.90;;;;;;5043756;28;20452;-87
2020/12/12 02:17:11;;;;;;;10.90;9.17;;;6.30;99.90;;;;;;5037666;28;20444;-86
2020/12/12 02:19:38;;;;;;;14.73;10.63;;;6.20;99.90;;;;;;5036787;28;20779;-86
2020/12/12 02:22:07;;;;;;;13.30;10.87;;;6.20;99.90;;;;;;5037357;28;20919;-88
2020/12/12 02:24:34;;;;;;;13.93;10.60;;;6.20;99.90;;;;;;5036898;28;20849;-87
2020/12/12 02:27:02;;;;;;;13.00;10.20;;;6.20;99.90;;;;;;5036447;28;20455;-87
2020/12/12 02:29:39;;;;;;;14.17;11.20;;;6.10;99.90;;;;;;5036257;28;20522;-87
2020/12/12 02:32:15;;;;;;;13.17;10.43;;;6.10;99.90;;;;;;4982892;28;20482;-87
2020/12/12 02:34:42;;;;;;;12.13;10.60;;;6.10;99.90;;;;;;5036994;28;20516;-87
2020/12/12 02:37:10;;;;;;;12.03;10.33;;;6.10;99.90;;;;;;5036247;28;20465;-87
2020/12/12 02:39:36;;;;;;;15.20;11.90;;;6.10;99.90;;;;;;5035735;28;20464;-88
2020/12/12 02:42:02;;;;;;;10.97;9.70;;;6.10;99.90;;;;;;5036492;28;20518;-87
2020/12/12 02:44:29;;;;;;;12.13;10.37;;;6.10;99.90;;;;;;5036128;28;20482;-87
2020/12/12 02:46:55;;;;;;;12.77;10.47;;;6.20;99.90;;;;;;5036172;28;20455;-87
2020/12/12 02:49:22;;;;;;;15.20;11.37;;;6.20;99.90;;;;;;5038878;28;20939;-88
2020/12/12 02:51:48;;;;;;;12.73;10.93;;;6.20;99.90;;;;;;5037641;28;20473;-88
2020/12/12 02:54:15;;;;;;;12.90;9.83;;;6.20;99.90;;;;;;5035764;28;20460;-88
2020/12/12 02:56:42;;;;;;;17.07;10.87;;;6.10;99.90;;;;;;5034721;28;20456;-88
2020/12/12 02:59:08;;;;;;;16.20;12.40;;;6.20;99.90;;;;;;5035786;28;20781;-88
2020/12/12 03:01:39;;;;;;;12.50;10.60;;;6.20;99.90;;;;;;5034951;28;20448;-89
2020/12/12 03:04:05;;;;;;;14.70;11.70;;;6.20;99.90;;;;;;5035441;28;20442;-88
2020/12/12 03:06:31;;;;;;;16.00;12.07;;;6.20;99.90;;;;;;5034770;28;20571;-88
2020/12/12 03:08:58;;;;;;;13.00;11.13;;;6.10;99.90;;;;;;5034839;28;20510;-88
2020/12/12 03:11:25;;;;;;;11.87;9.93;;;6.10;99.90;;;;;;5034819;28;20453;-88
2020/12/12 03:13:51;;;;;;;19.23;12.23;;;6.20;99.90;;;;;;5035588;28;20450;-88
2020/12/12 03:16:18;;;;;;;13.43;10.03;;;6.20;99.90;;;;;;5035520;28;20540;-89
2020/12/12 03:18:44;;;;;;;13.20;10.47;;;6.30;99.90;;;;;;5036297;28;20467;-89
2020/12/12 03:21:11;;;;;;;14.97;11.23;;;6.30;99.90;;;;;;5034470;28;20544;-89
2020/12/12 03:23:37;;;;;;;13.80;11.20;;;6.30;99.90;;;;;;5034863;28;20433;-86
2020/12/12 03:26:03;;;;;;;13.80;10.50;;;6.30;99.90;;;;;;5035639;28;20441;-87
2020/12/12 03:28:30;;;;;;;13.77;11.20;;;6.30;99.90;;;;;;5034899;28;20485;-87
2020/12/12 03:30:57;;;;;;;13.80;10.87;;;6.30;99.90;;;;;;5035087;28;20440;-87
2020/12/12 03:33:23;;;;;;;11.20;9.40;;;6.30;99.90;;;;;;5035036;28;20457;-88
2020/12/12 03:35:49;;;;;;;12.87;10.03;;;6.30;99.90;;;;;;5035448;28;20448;-87
2020/12/12 03:38:16;;;;;;;12.33;10.17;;;6.40;99.90;;;;;;5034164;28;20503;-87
2020/12/12 03:40:42;;;;;;;13.80;10.57;;;6.40;99.90;;;;;;5033901;28;20636;-88
2020/12/12 03:43:08;;;;;;;12.90;9.70;;;6.30;99.90;;;;;;5034543;28;20487;-87
2020/12/12 03:45:35;;;;;;;12.77;9.93;;;6.30;99.90;;;;;;5033720;28;20943;-89
2020/12/12 03:48:02;;;;;;;15.43;12.40;;;6.40;99.90;;;;;;5034420;28;20762;-87
2020/12/12 03:50:28;;;;;;;11.93;9.57;;;6.40;99.90;;;;;;5033574;28;20449;-87
2020/12/12 03:52:55;;;;;;;13.63;10.87;;;6.40;99.90;;;;;;5034326;28;20785;-87
2020/12/12 03:55:22;;;;;;;13.20;10.70;;;6.30;99.90;;;;;;5034429;28;20440;-87
2020/12/12 03:57:48;;;;;;;13.20;9.37;;;6.40;99.90;;;;;;5033866;28;20449;-86
2020/12/12 04:00:15;;;;;;;11.93;9.00;;;6.40;99.90;;;;;;5035165;28;20456;-87
2020/12/12 04:02:42;;;;;;;12.40;9.53;;;6.50;99.90;;;;;;5034536;28;20547;-88
2020/12/12 04:05:08;;;;;;;13.23;9.60;;;6.50;99.90;;;;;;5034834;28;20449;-87
2020/12/12 04:07:34;;;;;;;11.97;9.83;;;6.50;99.90;;;;;;5034463;28;20547;-87
2020/12/12 04:10:01;;;;;;;11.20;8.47;;;6.60;99.90;;;;;;5034324;28;20626;-87
2020/12/12 04:12:28;;;;;;;11.23;9.40;;;6.50;99.90;;;;;;5034122;28;20455;-87
2020/12/12 04:14:55;;;;;;;12.83;10.27;;;6.50;99.90;;;;;;5034137;28;20449;-86
2020/12/12 04:17:21;;;;;;;12.70;10.00;;;6.50;99.90;;;;;;5034142;28;20454;-86
2020/12/12 04:19:48;;;;;;;12.57;9.37;;;6.40;99.90;;;;;;5033694;28;20456;-87
2020/12/12 04:22:14;;;;;;;11.43;8.87;;;6.50;99.90;;;;;;5034316;28;20448;-88
2020/12/12 04:24:41;;;;;;;11.50;8.77;;;6.50;99.90;;;;;;5016435;28;20460;-87
2020/12/12 04:27:07;;;;;;;11.23;8.90;;;6.60;99.90;;;;;;5033638;28;20458;-88
2020/12/12 04:29:34;;;;;;;11.17;9.10;;;6.70;99.90;;;;;;5033788;28;20574;-88
2020/12/12 04:32:00;;;;;;;14.07;10.07;;;6.60;99.90;;;;;;5036195;28;20455;-88
2020/12/12 04:34:26;;;;;;;11.30;8.70;;;6.60;99.90;;;;;;5037226;28;20906;-88
2020/12/12 04:36:53;;;;;;;11.53;9.17;;;6.70;99.90;;;;;;5037454;28;20452;-90
2020/12/12 04:39:21;;;;;;;11.50;9.30;;;6.70;99.90;;;;;;5037871;28;20778;-86
2020/12/12 04:41:48;;;;;;;14.37;10.53;;;6.70;99.90;;;;;;5038338;28;20781;-87
2020/12/12 04:44:14;;;;;;;12.07;9.87;;;6.70;99.90;;;;;;5037720;28;20476;-87
2020/12/12 04:46:41;;;;;;;12.53;9.23;;;6.70;99.90;;;;;;5037740;28;20457;-86
2020/12/12 04:49:07;;;;;;;12.43;9.33;;;6.60;99.90;;;;;;5037397;28;20491;-86
2020/12/12 04:51:35;;;;;;;12.50;9.63;;;6.60;99.90;;;;;;5037437;28;20441;-87
2020/12/12 04:54:02;;;;;;;12.10;9.50;;;6.70;99.90;;;;;;5037775;28;20451;-87
2020/12/12 04:56:36;;;;;;;11.20;9.37;;;6.60;99.90;;;;;;5037814;28;20452;-89
2020/12/12 04:59:03;;;;;;;10.20;8.37;;;6.70;99.90;;;;;;5037652;28;20924;-87
2020/12/12 05:01:32;;;;;;;13.43;10.27;;;6.70;99.90;;;;;;5037002;28;20444;-87
2020/12/12 05:04:01;;;;;;;10.87;9.43;;;6.70;99.90;;;;;;5037667;28;20449;-87
2020/12/12 05:06:29;;;;;;;10.80;8.80;;;6.70;99.90;;;;;;5037157;28;20762;-87
2020/12/12 05:08:55;;;;;;;12.50;9.30;;;6.70;99.90;;;;;;5040621;28;20484;-86
2020/12/12 05:11:24;;;;;;;13.47;9.53;;;6.70;99.90;;;;;;5037035;28;20453;-90
2020/12/12 05:13:51;;;;;;;11.30;8.60;;;6.70;99.90;;;;;;5037395;28;20453;-87
2020/12/12 05:16:19;;;;;;;11.03;8.97;;;6.80;99.90;;;;;;5037206;28;20532;-87
2020/12/12 05:18:45;;;;;;;11.60;9.43;;;6.80;99.90;;;;;;5036867;28;20496;-86
2020/12/12 05:21:12;;;;;;;9.90;8.60;;;6.80;99.90;;;;;;5036959;28;20465;-87
2020/12/12 05:23:39;;;;;;;10.77;8.47;;;6.80;99.90;;;;;;5035893;28;20453;-88
2020/12/12 05:26:05;;;;;;;11.73;9.13;;;6.80;99.90;;;;;;5036818;28;20447;-87
2020/12/12 05:28:33;;;;;;;10.87;9.00;;;6.90;99.90;;;;;;5036916;28;20555;-87
2020/12/12 05:30:59;;;;;;;12.23;8.43;;;6.90;99.90;;;;;;5037236;28;20511;-86
2020/12/12 05:33:30;;;;;;;10.90;8.90;;;7.00;99.90;;;;;;5036946;28;20455;-85
2020/12/12 05:35:56;;;;;;;11.37;9.00;;;7.00;99.90;;;;;;5037249;28;20433;-87
2020/12/12 05:38:23;;;;;;;13.40;9.43;;;7.00;99.90;;;;;;5036491;28;20518;-86
2020/12/12 05:40:52;;;;;;;11.77;9.80;;;6.90;99.90;;;;;;5036605;28;20447;-86
2020/12/12 05:43:18;;;;;;;11.27;9.80;;;6.80;99.90;;;;;;5036683;28;20473;-86
2020/12/12 05:45:46;;;;;;;11.53;9.23;;;6.90;99.90;;;;;;5037136;28;20456;-87
2020/12/12 05:48:12;;;;;;;11.37;9.20;;;6.90;99.90;;;;;;5036458;28;20451;-85
2020/12/12 05:50:39;;;;;;;9.83;8.33;;;7.00;99.90;;;;;;5034616;28;20655;-84
2020/12/12 05:53:06;;;;;;;10.63;8.70;;;6.90;99.90;;;;;;5035614;28;20448;-85
2020/12/12 05:55:34;;;;;;;12.37;9.23;;;7.00;99.90;;;;;;5034486;28;20445;-86
2020/12/12 05:58:01;;;;;;;12.13;8.63;;;6.90;99.90;;;;;;5035557;28;20471;-85
2020/12/12 06:00:30;;;;;;;11.83;9.33;;;6.90;99.90;;;;;;5036647;28;20459;-85
2020/12/12 06:02:59;;;;;;;12.10;9.57;;;6.90;99.90;;;;;;5043245;28;20485;-87
2020/12/12 06:05:29;;;;;;;12.67;9.43;;;7.00;99.90;;;;;;5050534;28;20540;-84
2020/12/12 06:07:57;;;;;;;13.17;10.33;;;6.90;99.90;;;;;;5042568;28;20459;-84
2020/12/12 06:10:29;;;;;;;12.13;10.17;;;6.90;99.90;;;;;;5043593;28;20544;-86
2020/12/12 06:12:59;;;;;;;12.53;9.17;;;7.00;99.90;;;;;;5042171;28;20459;-88
2020/12/12 06:15:36;;;;;;;14.70;11.47;;;7.00;99.90;;;;;;5043146;28;20535;-85
2020/12/12 06:18:22;;;;;;;12.50;10.80;;;6.90;99.90;;;;;;5042635;28;20511;-86
2020/12/12 06:20:52;;;;;;;13.03;8.93;;;6.90;99.90;;;;;;5041685;28;20464;-84
2020/12/12 06:23:19;;;;;;;12.50;10.67;;;6.90;99.90;;;;;;5041319;28;20444;-86
2020/12/12 06:25:46;;;;;;;11.67;9.93;;;6.90;99.90;;;;;;5035847;28;20924;-86
2020/12/12 06:28:19;;;;;;;13.03;9.73;;;6.90;99.90;;;;;;5034894;28;20447;-85
2020/12/12 06:30:46;;;;;;;11.40;9.50;;;7.00;99.90;;;;;;5034908;28;20472;-86
2020/12/12 06:33:13;;;;;;;11.23;8.80;;;7.00;99.90;;;;;;5035367;28;20773;-86
2020/12/12 06:35:39;;;;;;;14.30;10.43;;;7.00;99.90;;;;;;5034890;28;20449;-86
2020/12/12 06:38:24;;;;;;;13.13;9.47;;;7.00;99.90;;;;;;5034687;28;20447;-86
2020/12/12 06:40:54;;;;;;;13.50;9.80;;;7.00;99.90;;;;;;5033992;28;20715;-86
2020/12/12 06:43:34;;;;;;;15.90;10.17;;;7.00;99.90;;;;;;5034930;28;20473;-86
2020/12/12 06:46:03;;;;;;;13.47;10.27;;;7.00;99.90;;;;;;5034967;28;20527;-86
2020/12/12 06:48:34;;;;;;;14.00;9.70;;;7.10;99.90;;;;;;5034636;28;20488;-86
2020/12/12 06:51:02;;;;;;;15.50;9.50;;;7.00;99.90;;;;;;5034295;28;20528;-85
2020/12/12 06:53:30;;;;;;;10.80;9.10;;;7.10;99.90;;;;;;5033906;28;20458;-84
2020/12/12 06:56:07;;;;;;;11.83;9.57;;;7.10;99.90;;;;;;5033542;28;20540;-84
2020/12/12 06:58:34;;;;;;;13.23;9.40;;;7.10;99.90;;;;;;5033334;28;20475;-85
2020/12/12 07:01:23;;;;;;;12.50;9.50;;;7.10;99.90;;;;;;5034172;28;20498;-84
2020/12/12 07:03:57;;;;;;;13.07;10.03;;;7.10;99.90;;;;;;5033763;28;20785;-85
2020/12/12 07:06:28;;;;;;;14.77;11.07;;;7.00;99.90;;;;;;5034304;28;20452;-84
2020/12/12 07:08:59;;;;;;;12.80;10.90;;;7.00;99.90;;;;;;5033703;28;20541;-83
2020/12/12 07:11:26;;;;;;;11.37;8.87;;;7.10;99.90;;;;;;5034478;28;20436;-85
2020/12/12 07:13:53;;;;;;;12.73;9.90;;;7.20;99.90;;;;;;5033721;28;20477;-85
2020/12/12 07:16:21;;;;;;;12.10;9.67;;;7.10;99.90;;;;;;5034141;28;20937;-86
2020/12/12 07:18:49;;;;;;;12.83;10.10;;;7.10;99.90;;;;;;5033476;28;20528;-85
2020/12/12 07:21:18;;;;;;;11.97;9.10;;;7.10;99.90;;;;;;5034323;28;20452;-84
2020/12/12 07:23:44;;;;;;;11.50;9.03;;;7.10;99.90;;;;;;5033777;28;20925;-84
2020/12/12 07:26:11;;;;;;;12.37;9.93;;;7.10;99.90;;;;;;5034086;28;20481;-84
2020/12/12 07:28:38;;;;;;;12.07;9.40;;;7.10;99.90;;;;;;5033422;28;20547;-85
2020/12/12 07:31:05;;;;;;;15.47;9.67;;;7.10;99.90;;;;;;5027945;28;20462;-85
2020/12/12 07:33:34;;;;;;;10.87;9.00;;;7.10;99.90;;;;;;5033222;28;20461;-84
2020/12/12 07:36:01;;;;;;;15.50;11.57;;;7.10;99.90;;;;;;5033406;28;20452;-84
2020/12/12 07:38:28;;;;;;;13.83;10.27;;;7.00;99.90;;;;;;5033653;28;20523;-84
2020/12/12 07:40:55;;;;;;;18.77;10.17;;;7.00;99.90;;;;;;5034754;28;20523;-84
2020/12/12 07:43:26;;;;;;;12.17;10.17;;;7.00;99.90;;;;;;5035339;28;20475;-85
2020/12/12 07:46:02;;;;;;;13.37;10.33;;;7.10;99.90;;;;;;5035102;28;20510;-85
2020/12/12 07:48:28;;;;;;;12.73;10.13;;;7.10;99.90;;;;;;5035978;28;20541;-84
2020/12/12 07:50:55;;;;;;;13.53;10.53;;;7.20;99.90;;;;;;5036058;28;20451;-85
2020/12/12 07:53:21;;;;;;;12.47;10.40;;;7.00;99.90;;;;;;5035420;28;20547;-84
2020/12/12 07:55:58;;;;;;;13.43;10.50;;;7.00;99.90;;;;;;5034836;28;20921;-84
2020/12/12 07:58:27;;;;;;;12.40;9.10;;;7.00;99.90;;;;;;5034303;28;20483;-85
2020/12/12 08:00:58;;;;;;;17.10;12.80;;;6.90;99.90;;;;;;5034987;28;20461;-85
2020/12/12 08:03:25;;;;;;;10.90;8.90;;;6.90;99.90;;;;;;5035430;28;20436;-85
2020/12/12 08:06:04;;;;;;;13.83;10.03;;;6.90;99.90;;;;;;5035165;28;20502;-83
2020/12/12 08:08:30;;;;;;;11.47;9.27;;;6.90;99.90;;;;;;5039166;28;20531;-83
2020/12/12 08:11:00;;;;;;;13.30;9.80;;;7.00;99.90;;;;;;5038631;28;20456;-84
2020/12/12 08:13:28;;;;;;;13.70;10.63;;;7.00;99.90;;;;;;5039041;28;20443;-83
2020/12/12 08:16:06;;;;;;;13.63;10.33;;;7.00;99.90;;;;;;5038461;28;20456;-84
2020/12/12 08:18:33;;;;;;;12.43;9.73;;;7.10;99.90;;;;;;5037790;28;20444;-83
2020/12/12 08:21:16;;;;;;;14.03;11.17;;;7.00;99.90;;;;;;5032110;28;20463;-82
2020/12/12 08:23:46;;;;;;;17.70;10.93;;;7.10;99.90;;;;;;5039756;28;20472;-83
2020/12/12 08:26:18;;;;;;;13.27;10.70;;;7.00;99.90;;;;;;5039952;28;20452;-84
2020/12/12 08:28:45;;;;;;;13.73;11.77;;;7.00;99.90;;;;;;5031589;28;20481;-84
2020/12/12 08:31:14;;;;;;;13.40;11.30;;;6.90;99.90;;;;;;5022887;28;20569;-84
2020/12/12 08:33:40;;;;;;;12.60;10.53;;;6.90;99.90;;;;;;5036895;28;20566;-86
2020/12/12 08:36:15;;;;;;;13.67;11.13;;;7.00;99.90;;;;;;5034256;28;20457;-84
2020/12/12 08:38:43;;;;;;;13.00;10.53;;;7.00;99.90;;;;;;5035181;28;20440;-84
2020/12/12 08:41:14;;;;;;;15.00;12.53;;;6.90;99.90;;;;;;5036169;28;20455;-84
2020/12/12 08:43:44;;;;;;;11.80;9.67;;;7.00;99.90;;;;;;5036266;28;20968;-90
2020/12/12 08:46:14;;;;;;;13.27;11.00;;;7.10;99.90;;;;;;5036558;28;20444;-84
2020/12/12 08:48:41;;;;;;;10.73;9.47;;;7.20;99.90;;;;;;5034686;28;20448;-85
2020/12/12 08:51:08;;;;;;;10.80;9.40;;;7.30;99.90;;;;;;5036965;28;20535;-84
2020/12/12 08:53:36;;;;;;;13.27;10.40;;;7.30;99.90;;;;;;5036776;28;20543;-83
2020/12/12 08:56:08;;;;;;;10.23;8.50;;;7.30;99.90;;;;;;5036947;28;20532;-85
2020/12/12 08:58:38;;;;;;;14.07;11.40;;;7.20;99.90;;;;;;5031694;28;20466;-85
2020/12/12 09:01:15;;;;;;;11.60;9.97;;;7.20;99.90;;;;;;5043779;28;20445;-84
2020/12/12 09:03:59;;;;;;;16.80;12.17;;;7.30;99.90;;;;;;5017148;28;20765;-86
2020/12/12 09:06:27;;;;;;;13.57;11.00;;;7.20;99.90;;;;;;5017296;28;20438;-84
2020/12/12 09:09:10;;;;;;;16.27;11.57;;;7.30;99.90;;;;;;5016928;28;20490;-84
2020/12/12 09:11:37;;;;;;;13.53;10.80;;;7.20;99.90;;;;;;5016799;28;20430;-84
2020/12/12 09:14:05;;;;;;;10.40;8.83;;;7.30;99.90;;;;;;5024154;28;20460;-84
2020/12/12 09:16:33;;;;;;;12.37;9.63;;;7.40;99.90;;;;;;5036959;28;20445;-86
2020/12/12 09:18:59;;;;;;;11.33;9.60;;;7.60;99.90;;;;;;5035757;28;20563;-85
2020/12/12 09:21:25;;;;;;;11.50;9.93;;;7.60;99.90;;;;;;5036330;28;20900;-85
2020/12/12 09:23:52;;;;;;;10.67;9.57;;;7.70;99.90;;;;;;5036384;28;20544;-85
2020/12/12 09:26:20;;;;;;;16.33;11.33;;;7.80;99.90;;;;;;5044063;28;20452;-88
2020/12/12 09:28:47;;;;;;;11.33;9.17;;;7.80;99.90;;;;;;5032618;28;20441;-85
2020/12/12 09:31:16;;;;;;;13.83;11.00;;;7.80;99.90;;;;;;5035951;28;20455;-84
2020/12/12 09:33:43;;;;;;;11.47;10.13;;;7.80;99.90;;;;;;5035399;28;20451;-85
2020/12/12 09:36:09;;;;;;;13.00;10.60;;;7.80;99.90;;;;;;5035820;28;20445;-84
2020/12/12 09:38:36;;;;;;;11.17;9.97;;;7.80;99.90;;;;;;5036169;28;20453;-84
2020/12/12 09:41:02;;;;;;;14.07;9.57;;;7.80;99.90;;;;;;5032511;28;20483;-84
2020/12/12 09:43:28;;;;;;;12.23;9.77;;;7.90;99.90;;;;;;5015857;28;20560;-86
2020/12/12 09:45:55;;;;;;;12.50;9.73;;;7.90;99.90;;;;;;5034581;28;20444;-84
2020/12/12 09:48:22;;;;;;;13.27;9.60;;;8.00;99.90;;;;;;5036048;28;20441;-84
2020/12/12 09:50:49;;;;;;;10.17;8.63;;;8.00;99.90;;;;;;5035070;28;20512;-86
2020/12/12 09:53:15;;;;;;;10.20;9.10;;;8.00;99.90;;;;;;5036109;28;20473;-85
2020/12/12 09:55:42;;;;;;;11.23;9.97;;;8.00;99.90;;;;;;5026014;28;20446;-89
2020/12/12 09:58:09;;;;;;;11.47;8.67;;;7.90;99.90;;;;;;5032493;28;20445;-84
2020/12/12 10:00:37;;;;;;;12.40;10.33;;;7.80;99.90;;;;;;5035864;28;20555;-84
2020/12/12 10:03:03;;;;;;;9.80;8.80;;;7.90;99.90;;;;;;5036503;28;20846;-85
2020/12/12 10:05:31;;;;;;;10.93;9.67;;;7.90;99.90;;;;;;5035649;28;20527;-85
2020/12/12 10:07:57;;;;;;;9.73;7.87;;;8.00;99.90;;;;;;5035685;28;20455;-84
2020/12/12 10:10:25;;;;;;;12.10;8.90;;;8.10;99.90;;;;;;5035925;28;20491;-84
2020/12/12 10:12:52;;;;;;;9.67;7.90;;;8.10;99.90;;;;;;5035106;28;20448;-85
2020/12/12 10:15:19;;;;;;;10.10;7.87;;;8.10;99.90;;;;;;5035503;28;20912;-85
2020/12/12 10:17:46;;;;;;;11.30;8.97;;;8.30;99.90;;;;;;5035557;28;20544;-85
2020/12/12 10:20:13;;;;;;;10.00;8.20;;;8.30;99.90;;;;;;5035795;28;20492;-84
2020/12/12 10:22:43;;;;;;;9.70;8.17;;;8.30;99.90;;;;;;5034607;28;20448;-84
2020/12/12 10:25:10;;;;;;;9.47;7.90;;;8.30;99.90;;;;;;5035807;28;20480;-84
2020/12/12 10:27:37;;;;;;;8.97;8.03;;;8.40;99.90;;;;;;5034209;28;20811;-84
2020/12/12 10:30:05;;;;;;;8.33;6.70;;;8.20;99.90;;;;;;5026411;28;20552;-84
2020/12/12 10:32:32;;;;;;;9.40;7.13;;;8.20;99.90;;;;;;5032869;28;20459;-85
2020/12/12 10:34:59;;;;;;;14.60;7.80;;;8.30;99.90;;;;;;5036215;28;20503;-85
2020/12/12 10:37:27;;;;;;;15.30;8.50;;;8.40;99.90;;;;;;5016276;28;20464;-86
2020/12/12 10:39:59;;;;;;;8.10;6.70;;;8.20;99.90;;;;;;5015362;28;20544;-86
2020/12/12 10:42:25;;;;;;;10.17;7.57;;;8.30;99.90;;;;;;5015724;28;20544;-86
2020/12/12 10:44:52;;;;;;;7.47;6.67;;;8.10;99.90;;;;;;5028238;28;20891;-86
2020/12/12 10:47:18;;;;;;;8.90;5.93;;;8.20;99.90;;;;;;5034960;28;20455;-85
2020/12/12 10:49:45;;;;;;;8.07;6.80;;;8.10;99.90;;;;;;5035039;28;20542;-87
2020/12/12 10:52:11;;;;;;;10.33;8.10;;;8.00;99.90;;;;;;5034029;28;20797;-87
2020/12/12 10:54:38;;;;;;;10.80;6.40;;;8.00;99.90;;;;;;5033905;28;20503;-85
2020/12/12 10:57:05;;;;;;;7.90;6.53;;;8.10;99.90;;;;;;5032723;28;20905;-86
2020/12/12 10:59:32;;;;;;;8.10;6.43;;;8.20;99.90;;;;;;5034213;28;20460;-84
2020/12/12 11:01:58;;;;;;;9.30;6.90;;;8.20;99.90;;;;;;5024916;28;20462;-85
2020/12/12 11:04:24;;;;;;;7.53;6.10;;;8.20;99.90;;;;;;5018595;28;20537;-86
2020/12/12 11:06:51;;;;;;;7.73;6.30;;;8.20;99.90;;;;;;5033350;28;20484;-84
2020/12/12 11:09:18;;;;;;;7.60;6.00;;;8.20;99.90;;;;;;5033395;28;20940;-86
2020/12/12 11:11:45;;;;;;;7.87;5.77;;;8.10;99.90;;;;;;5033896;28;20452;-86
2020/12/12 11:14:12;;;;;;;9.70;7.23;;;8.00;99.90;;;;;;5034906;28;20527;-84
2020/12/12 11:16:38;;;;;;;7.30;5.90;;;8.00;99.90;;;;;;5034494;28;20476;-84
2020/12/12 11:19:05;;;;;;;7.30;5.97;;;8.10;99.90;;;;;;5033601;28;20533;-84
2020/12/12 11:21:32;;;;;;;9.93;6.10;;;8.10;99.90;;;;;;5033690;28;20543;-84
2020/12/12 11:23:59;;;;;;;7.73;5.90;;;8.10;99.90;;;;;;5033825;28;20457;-84
2020/12/12 11:26:25;;;;;;;6.40;5.57;;;8.20;99.90;;;;;;5034675;28;20433;-85
2020/12/12 11:28:52;;;;;;;8.27;6.00;;;8.10;99.90;;;;;;5032638;28;20453;-85
2020/12/12 11:31:21;;;;;;;6.33;5.43;;;8.10;99.90;;;;;;5034257;28;20791;-85
2020/12/12 11:33:51;;;;;;;8.53;6.10;;;8.10;99.90;;;;;;5032319;28;20837;-85
2020/12/12 11:36:42;;;;;;;7.33;5.63;;;8.10;99.90;;;;;;5033446;28;20476;-85
2020/12/12 11:39:12;;;;;;;5.73;5.00;;;8.10;99.90;;;;;;5033752;28;20445;-85
2020/12/12 11:41:59;;;;;;;6.50;4.90;;;8.20;99.90;;;;;;5032876;28;20444;-85
2020/12/12 11:47:10;;;;;;;5.50;4.90;;;8.20;99.90;;;;;;5019305;28;20440;-84
2020/12/12 11:49:37;;;;;;;6.13;4.77;;;8.30;99.90;;;;;;5033435;28;20598;-85
2020/12/12 11:52:04;;;;;;;5.63;5.03;;;8.30;99.90;;;;;;5033249;28;20480;-85
2020/12/12 11:54:30;;;;;;;5.90;4.80;;;8.20;99.90;;;;;;5033112;28;20787;-85
2020/12/12 11:56:56;;;;;;;9.53;7.07;;;8.20;99.90;;;;;;5033337;28;20440;-84
2020/12/12 11:59:24;;;;;;;12.33;5.13;;;8.20;99.90;;;;;;5033318;28;20540;-85
2020/12/12 12:01:50;;;;;;;6.67;5.50;;;8.30;99.90;;;;;;5033305;28;20495;-85
2020/12/12 12:04:17;;;;;;;6.87;5.23;;;8.40;99.90;;;;;;5033831;28;20889;-84
2020/12/12 12:06:44;;;;;;;4.77;4.20;;;8.60;99.90;;;;;;5033552;28;20548;-84
2020/12/12 12:09:17;;;;;;;4.97;4.47;;;8.90;99.90;;;;;;5032442;28;20503;-85
2020/12/12 12:11:44;;;;;;;5.03;4.23;;;9.10;99.90;;;;;;5033203;28;20425;-85
2020/12/12 12:14:11;;;;;;;4.83;4.40;;;9.20;99.90;;;;;;5032513;28;20463;-84
2020/12/12 12:16:39;;;;;;;5.60;4.83;;;9.10;99.90;;;;;;5032745;28;20449;-82
2020/12/12 12:19:06;;;;;;;7.07;4.97;;;9.20;99.90;;;;;;5031783;28;20940;-84
2020/12/12 12:21:35;;;;;;;5.40;3.50;;;9.30;99.90;;;;;;5033023;28;20440;-85
2020/12/12 12:24:02;;;;;;;4.40;4.00;;;9.50;99.90;;;;;;5021170;28;20529;-85
2020/12/12 12:26:28;;;;;;;6.40;4.43;;;9.60;99.90;;;;;;5013663;28;20512;-86
2020/12/12 12:28:55;;;;;;;6.13;4.30;;;9.40;99.90;;;;;;5013681;28;20536;-86
2020/12/12 12:31:22;;;;;;;4.30;3.50;;;9.60;99.90;;;;;;5030699;28;20464;-85
2020/12/12 12:33:48;;;;;;;5.43;4.30;;;9.60;99.90;;;;;;5022874;28;20771;-85
2020/12/12 12:36:16;;;;;;;4.07;3.37;;;9.40;99.90;;;;;;5028889;28;20438;-86
2020/12/12 12:38:44;;;;;;;6.40;4.47;;;9.50;99.90;;;;;;5042672;28;20484;-85
2020/12/12 12:41:11;;;;;;;8.00;4.70;;;9.60;99.90;;;;;;5035674;28;20449;-85
2020/12/12 12:43:37;;;;;;;4.00;3.40;;;9.60;99.90;;;;;;5034615;28;20497;-86
2020/12/12 12:46:03;;;;;;;6.27;4.40;;;9.50;99.90;;;;;;5033954;28;20524;-85
2020/12/12 12:48:30;;;;;;;5.00;3.33;;;9.60;99.90;;;;;;5034646;28;20534;-85
2020/12/12 12:50:56;;;;;;;6.07;4.37;;;9.70;99.90;;;;;;5033846;28;20491;-85
2020/12/12 12:53:24;;;;;;;4.50;3.90;;;9.60;99.90;;;;;;5041224;28;20514;-84
2020/12/12 12:55:51;;;;;;;8.17;4.77;;;9.60;99.90;;;;;;5057162;28;20531;-83
2020/12/12 12:58:21;;;;;;;6.40;4.93;;;9.40;99.90;;;;;;5058197;28;20443;-84
2020/12/12 13:00:52;;;;;;;5.47;4.80;;;9.40;99.90;;;;;;5027381;28;20929;-85
2020/12/12 13:03:19;;;;;;;7.17;5.57;;;9.50;99.90;;;;;;5018325;28;20957;-84